createdAt,value
2022-12-01T00:01:23.551Z,102086.28
2022-12-01T00:03:51.069Z,102078.41
2022-12-01T00:06:20.548Z,102077.59
2022-12-01T00:09:08.377Z,102072.25
2022-12-01T00:11:37.040Z,102073.94
2022-12-01T00:14:05.267Z,102077.53
2022-12-01T00:16:33.002Z,102080.94
2022-12-01T00:19:00.984Z,102070.53
2022-12-01T00:21:28.532Z,102074.13
2022-12-01T00:23:57.801Z,102075.75
2022-12-01T00:26:27.547Z,102067.84
2022-12-01T00:28:59.861Z,102048.66
2022-12-01T00:31:28.072Z,102066.38
2022-12-01T00:33:55.980Z,102067.16
2022-12-01T00:36:24.080Z,102063.63
2022-12-01T00:38:55.770Z,102056.56
2022-12-01T00:41:25.281Z,102049.66
2022-12-01T00:43:52.749Z,102062.88
2022-12-01T00:46:20.514Z,102063.75
2022-12-01T00:48:48.490Z,102055.81
2022-12-01T00:51:18.930Z,102058.50
2022-12-01T00:53:48.821Z,102061.09
2022-12-01T00:56:17.447Z,102049.75
2022-12-01T00:58:46.285Z,102053.94
2022-12-01T01:01:14.021Z,102053.09
2022-12-01T01:03:41.571Z,102049.69
2022-12-01T01:06:13.270Z,102046.25
2022-12-01T01:08:41.188Z,102048.94
2022-12-01T01:11:09.102Z,102049.84
2022-12-01T01:13:37.035Z,102036.78
2022-12-01T01:16:05.358Z,102038.38
2022-12-01T01:18:33.321Z,102034.91
2022-12-01T01:21:06.612Z,102041.00
2022-12-01T01:23:34.092Z,102043.66
2022-12-01T01:26:10.008Z,102036.72
2022-12-01T01:28:37.604Z,102030.44
2022-12-01T01:31:06.826Z,102019.22
2022-12-01T01:33:34.350Z,102025.47
2022-12-01T01:36:02.421Z,102012.44
2022-12-01T01:38:31.205Z,102017.66
2022-12-01T01:40:58.326Z,102019.41
2022-12-01T01:43:47.520Z,102024.63
2022-12-01T01:46:16.316Z,102032.38
2022-12-01T01:49:08.272Z,102041.00
2022-12-01T01:51:46.388Z,102042.06
2022-12-01T01:54:19.673Z,102050.88
2022-12-01T01:56:49.527Z,102044.84
2022-12-01T01:59:24.674Z,102052.72
2022-12-01T02:02:00.621Z,102028.31
2022-12-01T02:04:29.171Z,102029.25
2022-12-01T02:06:56.246Z,102037.84
2022-12-01T02:09:23.620Z,102042.31
2022-12-01T02:12:11.593Z,102033.75
2022-12-01T02:15:15.557Z,102038.94
2022-12-01T02:18:20.205Z,102039.03
2022-12-01T02:21:03.898Z,102019.94
2022-12-01T02:23:33.852Z,102015.56
2022-12-01T02:26:07.027Z,102019.78
2022-12-01T02:28:55.648Z,102014.63
2022-12-01T02:31:30.960Z,102013.63
2022-12-01T02:34:10.589Z,102008.28
2022-12-01T02:36:46.412Z,102011.72
2022-12-01T02:39:27.556Z,102011.00
2022-12-01T02:42:05.059Z,102021.38
2022-12-01T02:44:42.889Z,102017.84
2022-12-01T02:47:14.757Z,102015.22
2022-12-01T02:49:48.185Z,102010.84
2022-12-01T02:52:16.750Z,102012.63
2022-12-01T02:54:45.432Z,102011.81
2022-12-01T02:57:13.659Z,102011.88
2022-12-01T02:59:43.607Z,102004.00
2022-12-01T03:02:16.346Z,102012.81
2022-12-01T03:05:10.198Z,102013.69
2022-12-01T03:08:02.161Z,102005.88
2022-12-01T03:10:45.270Z,101991.81
2022-12-01T03:13:50.513Z,101993.63
2022-12-01T03:16:57.301Z,101989.06
2022-12-01T03:19:37.618Z,101991.78
2022-12-01T03:22:14.228Z,101980.41
2022-12-01T03:24:47.124Z,101993.47
2022-12-01T03:27:18.792Z,101987.31
2022-12-01T03:29:53.595Z,101989.16
2022-12-01T03:32:52.205Z,101989.91
2022-12-01T03:35:27.682Z,101989.94
2022-12-01T03:38:00.150Z,101993.53
2022-12-01T03:40:31.322Z,101990.88
2022-12-01T03:43:10.557Z,101990.91
2022-12-01T03:46:00.843Z,101983.09
2022-12-01T03:48:29.973Z,101988.31
2022-12-01T03:56:56.340Z,101995.44
2022-12-01T03:59:27.011Z,101990.84
2022-12-01T04:01:55.400Z,102003.13
2022-12-01T04:04:22.434Z,102008.47
2022-12-01T04:06:51.130Z,102006.66
2022-12-01T04:09:18.231Z,102004.13
2022-12-01T04:12:04.181Z,102007.50
2022-12-01T04:14:31.300Z,102021.50
2022-12-01T04:16:58.988Z,102005.94
2022-12-01T04:19:26.189Z,101998.09
2022-12-01T04:21:53.464Z,102005.13
2022-12-01T04:24:20.698Z,102004.31
2022-12-01T04:26:48.161Z,101995.69
2022-12-01T04:29:15.227Z,101992.03
2022-12-01T04:31:43.862Z,101994.66
2022-12-01T04:34:11.370Z,101989.47
2022-12-01T04:36:39.008Z,101985.19
2022-12-01T04:39:06.009Z,101994.00
2022-12-01T04:41:34.412Z,101986.13
2022-12-01T04:44:01.453Z,101997.44
2022-12-01T04:46:28.917Z,102002.81
2022-12-01T04:48:57.089Z,101996.75
2022-12-01T04:51:24.786Z,101995.75
2022-12-01T04:53:52.580Z,101991.47
2022-12-01T04:56:20.366Z,101980.97
2022-12-01T04:58:48.986Z,101992.34
2022-12-01T05:01:18.793Z,101992.34
2022-12-01T05:03:49.884Z,102001.88
2022-12-01T05:06:38.060Z,102005.47
2022-12-01T05:09:05.971Z,101999.41
2022-12-01T05:11:34.038Z,101997.66
2022-12-01T05:14:01.615Z,101997.72
2022-12-01T05:16:32.625Z,101992.50
2022-12-01T05:19:19.654Z,101984.63
2022-12-01T05:22:12.752Z,101994.19
2022-12-01T05:24:40.195Z,101995.06
2022-12-01T05:27:09.447Z,101990.84
2022-12-01T05:29:37.055Z,101979.41
2022-12-01T05:32:07.133Z,101985.44
2022-12-01T05:34:34.043Z,101985.50
2022-12-01T05:37:09.094Z,101989.78
2022-12-01T05:39:49.577Z,101990.78
2022-12-01T05:42:20.136Z,101998.72
2022-12-01T05:44:50.036Z,102002.16
2022-12-01T05:47:17.486Z,101997.84
2022-12-01T05:49:49.536Z,101997.09
2022-12-01T05:55:32.068Z,102005.22
2022-12-01T06:01:11.036Z,101988.75
2022-12-01T06:03:38.040Z,102007.09
2022-12-01T06:06:21.540Z,101993.84
2022-12-01T06:09:51.552Z,102005.28
2022-12-01T06:12:37.859Z,102014.22
2022-12-01T06:15:14.354Z,102014.28
2022-12-01T06:17:42.802Z,102003.59
2022-12-01T06:23:00.510Z,102006.44
2022-12-01T06:25:30.574Z,102011.69
2022-12-01T06:27:58.935Z,102014.34
2022-12-01T06:30:26.713Z,102019.72
2022-12-01T06:32:53.870Z,102018.72
2022-12-01T06:35:21.601Z,102013.59
2022-12-01T06:37:48.785Z,102012.81
2022-12-01T06:40:16.567Z,102004.19
2022-12-01T06:42:43.560Z,102006.78
2022-12-01T06:45:11.428Z,102003.41
2022-12-01T06:47:39.001Z,102009.47
2022-12-01T06:50:08.939Z,102008.59
2022-12-01T06:52:39.069Z,102009.41
2022-12-01T06:55:22.054Z,101998.28
2022-12-01T06:57:49.521Z,101995.66
2022-12-01T07:00:17.594Z,101999.09
2022-12-01T07:02:45.117Z,101990.44
2022-12-01T07:05:12.467Z,101997.56
2022-12-01T07:07:40.193Z,102002.09
2022-12-01T07:10:12.569Z,101996.06
2022-12-01T07:12:39.954Z,101999.63
2022-12-01T07:15:09.462Z,101997.13
2022-12-01T07:17:38.474Z,101993.59
2022-12-01T07:20:10.871Z,101988.53
2022-12-01T07:22:39.748Z,101992.88
2022-12-01T07:25:07.520Z,101991.19
2022-12-01T07:30:22.079Z,101987.69
2022-12-01T07:32:52.497Z,101987.66
2022-12-01T07:35:20.451Z,101974.28
2022-12-01T07:37:47.615Z,101992.69
2022-12-01T07:40:15.190Z,101989.34
2022-12-01T07:42:42.528Z,101997.19
2022-12-01T07:45:10.106Z,102006.00
2022-12-01T07:47:37.399Z,101991.97
2022-12-01T07:50:08.427Z,101997.47
2022-12-01T07:52:35.998Z,102005.50
2022-12-01T07:55:03.721Z,101992.31
2022-12-01T08:00:15.747Z,102002.72
2022-12-01T08:02:43.154Z,101998.28
2022-12-01T08:05:11.031Z,101993.81
2022-12-01T08:07:39.477Z,101992.06
2022-12-01T08:10:21.600Z,102001.59
2022-12-01T08:12:52.016Z,102001.59
2022-12-01T08:15:21.622Z,102001.38
2022-12-01T08:17:52.900Z,102007.41
2022-12-01T08:20:23.996Z,101999.59
2022-12-01T08:22:51.676Z,101997.84
2022-12-01T08:25:19.876Z,101996.97
2022-12-01T08:27:47.244Z,101989.13
2022-12-01T08:30:16.839Z,102001.28
2022-12-01T08:32:48.271Z,102005.66
2022-12-01T08:35:15.504Z,101995.06
2022-12-01T08:37:45.352Z,102000.28
2022-12-01T08:40:15.828Z,101997.75
2022-12-01T08:42:51.903Z,101995.22
2022-12-01T08:45:24.255Z,102001.53
2022-12-01T08:47:55.660Z,101991.97
2022-12-01T08:50:25.036Z,101994.31
2022-12-01T08:52:53.035Z,102000.44
2022-12-01T08:55:22.577Z,101981.38
2022-12-01T08:57:49.981Z,102004.97
2022-12-01T09:00:18.214Z,101992.78
2022-12-01T09:02:45.686Z,101989.41
2022-12-01T09:05:12.917Z,101991.22
2022-12-01T09:07:41.552Z,101987.81
2022-12-01T09:13:09.930Z,101984.25
2022-12-01T09:15:57.952Z,101989.38
2022-12-01T09:18:25.557Z,101979.78
2022-12-01T09:20:53.019Z,101978.97
2022-12-01T09:23:21.800Z,101972.06
2022-12-01T09:25:49.906Z,101975.38
2022-12-01T09:31:11.140Z,101958.03
2022-12-01T09:36:25.384Z,101963.09
2022-12-01T09:38:53.145Z,101953.63
2022-12-01T09:41:26.270Z,101954.59
2022-12-01T09:44:05.836Z,101966.06
2022-12-01T09:47:01.358Z,101957.41
2022-12-01T09:50:14.305Z,101953.91
2022-12-01T09:52:47.599Z,101959.28
2022-12-01T09:55:17.952Z,101956.56
2022-12-01T09:57:49.172Z,101949.69
2022-12-01T10:00:26.254Z,101943.44
2022-12-01T10:03:38.766Z,101940.72
2022-12-01T10:06:43.990Z,101939.69
2022-12-01T10:09:44.727Z,101937.16
2022-12-01T10:12:32.475Z,101945.03
2022-12-01T10:15:09.715Z,101945.13
2022-12-01T10:18:01.961Z,101941.66
2022-12-01T10:20:36.863Z,101938.22
2022-12-01T10:23:25.648Z,101935.66
2022-12-01T10:26:08.992Z,101940.94
2022-12-01T10:28:39.249Z,101934.84
2022-12-01T10:31:42.188Z,101929.72
2022-12-01T10:37:01.906Z,101918.44
2022-12-01T10:39:54.653Z,101913.19
2022-12-01T10:45:26.024Z,101916.72
2022-12-01T10:48:21.105Z,101916.72
2022-12-01T10:50:55.847Z,101912.31
2022-12-01T10:53:26.925Z,101915.94
2022-12-01T10:56:13.314Z,101911.53
2022-12-01T10:59:04.257Z,101910.69
2022-12-01T11:01:35.856Z,101913.34
2022-12-01T11:04:21.423Z,101917.84
2022-12-01T11:06:50.473Z,101915.22
2022-12-01T11:09:26.642Z,101914.31
2022-12-01T11:12:00.175Z,101921.44
2022-12-01T11:14:52.266Z,101920.78
2022-12-01T11:20:40.540Z,101917.25
2022-12-01T11:23:29.912Z,101913.72
2022-12-01T11:26:15.900Z,101897.16
2022-12-01T11:28:56.246Z,101907.50
2022-12-01T11:31:37.929Z,101896.94
2022-12-01T11:34:06.365Z,101905.66
2022-12-01T11:36:43.242Z,101894.28
2022-12-01T11:39:27.854Z,101894.38
2022-12-01T11:41:57.888Z,101899.41
2022-12-01T11:44:50.392Z,101885.47
2022-12-01T11:47:24.593Z,101889.88
2022-12-01T11:49:57.670Z,101892.59
2022-12-01T11:52:30.748Z,101889.97
2022-12-01T11:54:58.165Z,101883.78
2022-12-01T11:57:35.617Z,101878.38
2022-12-01T12:00:46.295Z,101885.44
2022-12-01T12:03:19.955Z,101879.28
2022-12-01T12:06:38.530Z,101875.84
2022-12-01T12:09:03.768Z,101879.22
2022-12-01T12:12:05.034Z,101874.78
2022-12-01T12:14:48.700Z,101885.44
2022-12-01T12:17:22.197Z,101883.69
2022-12-01T12:20:11.047Z,101881.06
2022-12-01T12:22:57.495Z,101874.22
2022-12-01T12:25:27.247Z,101877.75
2022-12-01T12:28:25.420Z,101871.59
2022-12-01T12:31:21.932Z,101863.72
2022-12-01T12:34:08.081Z,101874.31
2022-12-01T12:36:50.755Z,101878.63
2022-12-01T12:39:19.459Z,101876.91
2022-12-01T12:42:00.875Z,101873.28
2022-12-01T12:44:53.992Z,101875.03
2022-12-01T12:48:09.269Z,101879.44
2022-12-01T12:50:58.479Z,101884.91
2022-12-01T12:53:32.090Z,101885.03
2022-12-01T12:56:40.747Z,101878.03
2022-12-01T12:59:21.084Z,101880.63
2022-12-01T13:01:54.589Z,101871.06
2022-12-01T13:04:26.997Z,101862.34
2022-12-01T13:07:08.784Z,101871.16
2022-12-01T13:09:50.387Z,101864.91
2022-12-01T13:12:35.348Z,101867.69
2022-12-01T13:15:15.491Z,101883.28
2022-12-01T13:17:51.764Z,101875.50
2022-12-01T13:20:23.082Z,101881.59
2022-12-01T13:22:52.797Z,101878.09
2022-12-01T13:25:38.453Z,101870.22
2022-12-01T13:28:17.548Z,101872.06
2022-12-01T13:31:07.388Z,101865.09
2022-12-01T13:33:38.808Z,101865.22
2022-12-01T13:39:28.801Z,101854.94
2022-12-01T13:42:23.743Z,101861.94
2022-12-01T13:45:03.833Z,101848.78
2022-12-01T13:47:54.423Z,101854.97
2022-12-01T13:50:43.940Z,101858.56
2022-12-01T13:53:19.885Z,101850.72
2022-12-01T13:55:59.610Z,101851.59
2022-12-01T13:58:32.798Z,101859.53
2022-12-01T14:01:22.109Z,101862.13
2022-12-01T14:07:24.334Z,101860.47
2022-12-01T14:09:56.233Z,101860.44
2022-12-01T14:12:33.177Z,101849.94
2022-12-01T14:15:29.417Z,101854.38
2022-12-01T14:18:23.053Z,101860.47
2022-12-01T14:20:50.577Z,101873.59
2022-12-01T14:23:33.357Z,101855.31
2022-12-01T14:26:34.802Z,101861.47
2022-12-01T14:29:02.272Z,101859.66
2022-12-01T14:31:35.482Z,101857.16
2022-12-01T14:34:20.083Z,101856.31
2022-12-01T14:37:09.709Z,101865.94
2022-12-01T14:39:47.734Z,101858.88
2022-12-01T14:42:40.291Z,101864.97
2022-12-01T14:45:12.692Z,101863.28
2022-12-01T14:47:44.987Z,101862.50
2022-12-01T14:50:21.085Z,101860.69
2022-12-01T14:53:04.763Z,101871.28
2022-12-01T14:55:40.025Z,101858.13
2022-12-01T14:58:20.012Z,101860.81
2022-12-01T15:01:03.622Z,101871.28
2022-12-01T15:03:41.038Z,101860.69
2022-12-01T15:06:16.164Z,101866.06
2022-12-01T15:09:04.158Z,101872.22
2022-12-01T15:11:34.113Z,101861.75
2022-12-01T15:14:01.167Z,101880.09
2022-12-01T15:16:31.046Z,101869.63
2022-12-01T15:18:58.283Z,101876.66
2022-12-01T15:21:31.372Z,101864.44
2022-12-01T15:24:09.572Z,101865.31
2022-12-01T15:26:49.812Z,101867.88
2022-12-01T15:29:26.362Z,101871.28
2022-12-01T15:32:01.729Z,101861.63
2022-12-01T15:34:43.039Z,101866.84
2022-12-01T15:37:18.935Z,101870.31
2022-12-01T15:40:43.007Z,101870.31
2022-12-01T15:43:15.392Z,101872.22
2022-12-01T15:48:43.571Z,101873.94
2022-12-01T15:51:16.858Z,101876.69
2022-12-01T15:53:54.121Z,101871.38
2022-12-01T15:56:31.934Z,101861.75
2022-12-01T15:59:16.319Z,101866.16
2022-12-01T16:01:45.044Z,101869.72
2022-12-01T16:04:23.230Z,101870.63
2022-12-01T16:07:01.670Z,101865.34
2022-12-01T16:09:40.743Z,101855.72
2022-12-01T16:12:23.987Z,101872.34
2022-12-01T16:15:01.008Z,101864.47
2022-12-01T16:17:43.812Z,101869.72
2022-12-01T16:20:38.267Z,101873.13
2022-12-01T16:23:16.191Z,101871.41
2022-12-01T16:25:51.582Z,101866.19
2022-12-01T16:28:24.651Z,101876.66
2022-12-01T16:31:00.439Z,101883.56
2022-12-01T16:33:36.243Z,101880.91
2022-12-01T16:36:08.590Z,101875.59
2022-12-01T16:38:37.882Z,101890.63
2022-12-01T16:41:17.948Z,101878.34
2022-12-01T16:44:05.480Z,101873.06
2022-12-01T16:46:32.433Z,101883.56
2022-12-01T16:49:05.398Z,101873.03
2022-12-01T16:51:54.917Z,101888.81
2022-12-01T16:54:23.917Z,101894.09
2022-12-01T16:56:51.427Z,101880.03
2022-12-01T16:59:20.994Z,101884.34
2022-12-01T17:04:53.131Z,101883.56
2022-12-01T17:07:21.177Z,101880.91
2022-12-01T17:09:51.978Z,101901.09
2022-12-01T17:12:26.474Z,101887.88
2022-12-01T17:14:53.952Z,101885.28
2022-12-01T17:17:21.340Z,101881.78
2022-12-01T17:19:54.639Z,101880.97
2022-12-01T17:22:23.005Z,101888.06
2022-12-01T17:24:51.689Z,101868.66
2022-12-01T17:27:22.195Z,101889.69
2022-12-01T17:29:51.620Z,101872.13
2022-12-01T17:32:21.290Z,101880.03
2022-12-01T17:34:49.503Z,101887.84
2022-12-01T17:37:20.862Z,101886.06
2022-12-01T17:39:50.517Z,101879.00
2022-12-01T17:42:20.542Z,101879.03
2022-12-01T17:47:32.278Z,101876.44
2022-12-01T17:49:59.650Z,101882.53
2022-12-01T17:52:28.650Z,101885.19
2022-12-01T17:54:56.619Z,101871.16
2022-12-01T17:57:24.219Z,101881.84
2022-12-01T17:59:51.553Z,101888.06
2022-12-01T18:02:18.752Z,101898.53
2022-12-01T18:04:46.226Z,101886.31
2022-12-01T18:07:14.664Z,101886.34
2022-12-01T18:09:42.281Z,101901.19
2022-12-01T18:12:09.496Z,101884.63
2022-12-01T18:14:37.717Z,101882.84
2022-12-01T18:17:08.124Z,101878.47
2022-12-01T18:19:36.098Z,101871.41
2022-12-01T18:22:04.614Z,101878.41
2022-12-01T18:24:32.322Z,101865.19
2022-12-01T18:27:07.834Z,101872.19
2022-12-01T18:29:38.014Z,101881.03
2022-12-01T18:32:17.913Z,101873.25
2022-12-01T18:35:31.561Z,101880.25
2022-12-01T18:38:29.186Z,101872.47
2022-12-01T18:41:02.342Z,101877.69
2022-12-01T18:43:31.009Z,101882.78
2022-12-01T18:45:59.505Z,101886.28
2022-12-01T18:48:27.247Z,101871.34
2022-12-01T18:50:59.638Z,101882.66
2022-12-01T18:53:26.800Z,101872.91
2022-12-01T18:55:54.501Z,101882.56
2022-12-01T18:58:24.037Z,101886.19
2022-12-01T19:00:51.409Z,101873.91
2022-12-01T19:03:18.633Z,101878.22
2022-12-01T19:05:47.016Z,101871.16
2022-12-01T19:08:14.170Z,101878.13
2022-12-01T19:10:41.666Z,101879.91
2022-12-01T19:13:11.397Z,101872.84
2022-12-01T19:15:38.969Z,101890.38
2022-12-01T19:18:06.941Z,101888.53
2022-12-01T19:20:39.004Z,101884.13
2022-12-01T19:23:06.849Z,101879.72
2022-12-01T19:25:36.915Z,101883.34
2022-12-01T19:28:09.796Z,101887.75
2022-12-01T19:30:37.208Z,101890.38
2022-12-01T19:33:04.580Z,101888.66
2022-12-01T19:35:36.347Z,101874.69
2022-12-01T19:38:03.473Z,101878.13
2022-12-01T19:40:45.078Z,101883.31
2022-12-01T19:43:14.514Z,101886.97
2022-12-01T19:45:44.548Z,101873.91
2022-12-01T19:48:13.549Z,101873.13
2022-12-01T19:50:41.078Z,101875.59
2022-12-01T19:53:08.266Z,101856.34
2022-12-01T19:55:41.787Z,101865.94
2022-12-01T19:58:10.204Z,101874.72
2022-12-01T20:00:37.797Z,101863.31
2022-12-01T20:03:04.826Z,101859.91
2022-12-01T20:05:33.921Z,101865.19
2022-12-01T20:08:02.288Z,101860.81
2022-12-01T20:10:29.807Z,101869.50
2022-12-01T20:12:59.806Z,101844.88
2022-12-01T20:15:27.289Z,101853.78
2022-12-01T20:17:55.461Z,101853.81
2022-12-01T20:20:42.811Z,101847.53
2022-12-01T20:23:09.980Z,101852.03
2022-12-01T20:25:37.518Z,101844.94
2022-12-01T20:28:04.733Z,101844.09
2022-12-01T20:30:32.137Z,101831.78
2022-12-01T20:33:02.059Z,101838.81
2022-12-01T20:39:19.639Z,101823.88
2022-12-01T20:44:29.430Z,101820.34
2022-12-01T20:47:29.194Z,101815.03
2022-12-01T20:49:58.451Z,101809.63
2022-12-01T20:52:26.834Z,101829.84
2022-12-01T20:54:53.914Z,101825.44
2022-12-01T20:57:21.428Z,101830.72
2022-12-01T20:59:48.796Z,101809.63
2022-12-01T21:02:16.268Z,101822.75
2022-12-01T21:04:43.318Z,101805.16
2022-12-01T21:07:10.804Z,101827.06
2022-12-01T21:09:37.912Z,101812.28
2022-12-01T21:16:00.082Z,101828.91
2022-12-01T21:18:48.822Z,101824.53
2022-12-01T21:21:24.476Z,101824.50
2022-12-01T21:24:20.148Z,101819.22
2022-12-01T21:26:58.939Z,101818.19
2022-12-01T21:29:33.632Z,101817.41
2022-12-01T21:32:03.174Z,101813.22
2022-12-01T21:34:39.757Z,101813.16
2022-12-01T21:37:15.154Z,101796.53
2022-12-01T21:39:42.725Z,101804.53
2022-12-01T21:42:30.693Z,101803.63
2022-12-01T21:44:58.425Z,101805.34
2022-12-01T21:47:30.768Z,101798.31
2022-12-01T21:50:02.486Z,101800.97
2022-12-01T21:52:55.548Z,101802.63
2022-12-01T21:55:25.120Z,101802.72
2022-12-01T21:57:53.821Z,101800.94
2022-12-01T22:00:27.142Z,101814.03
2022-12-01T22:03:00.391Z,101801.03
2022-12-01T22:05:40.589Z,101808.81
2022-12-01T22:08:37.683Z,101811.47
2022-12-01T22:11:22.592Z,101808.84
2022-12-01T22:14:11.027Z,101816.69
2022-12-01T22:16:53.430Z,101819.34
2022-12-01T22:19:27.863Z,101807.94
2022-12-01T22:22:01.041Z,101800.84
2022-12-01T22:24:34.456Z,101804.34
2022-12-01T22:27:30.532Z,101806.16
2022-12-01T22:30:08.299Z,101796.44
2022-12-01T22:33:03.737Z,101807.84
2022-12-01T22:35:49.262Z,101808.72
2022-12-01T22:38:38.892Z,101802.59
2022-12-01T22:41:14.946Z,101795.63
2022-12-01T22:43:47.511Z,101800.03
2022-12-01T22:46:29.670Z,101805.28
2022-12-01T22:49:06.115Z,101807.81
2022-12-01T22:52:02.801Z,101800.84
2022-12-01T22:54:34.592Z,101805.22
2022-12-01T22:57:10.029Z,101801.66
2022-12-01T22:59:44.804Z,101806.81
2022-12-01T23:02:14.342Z,101805.94
2022-12-01T23:07:33.000Z,101788.47
2022-12-01T23:10:18.813Z,101793.69
2022-12-01T23:12:48.404Z,101796.31
2022-12-01T23:15:32.937Z,101799.06
2022-12-01T23:18:15.291Z,101793.84
2022-12-01T23:20:54.276Z,101806.16
2022-12-01T23:23:26.528Z,101799.97
2022-12-01T23:25:56.715Z,101799.94
2022-12-01T23:28:24.556Z,101796.31
2022-12-01T23:30:55.108Z,101806.81
2022-12-01T23:33:25.400Z,101799.72
2022-12-01T23:35:55.114Z,101797.22
2022-12-01T23:38:26.320Z,101796.31
2022-12-01T23:40:57.413Z,101790.09
2022-12-01T23:43:33.260Z,101794.53
2022-12-01T23:46:17.890Z,101797.22
2022-12-01T23:48:49.136Z,101796.31
2022-12-01T23:51:23.056Z,101795.53
2022-12-01T23:53:55.644Z,101789.34
2022-12-01T23:56:28.106Z,101791.09
2022-12-01T23:58:57.441Z,101792.84
